Indianapolis, Indiana
Current Conditions -  °F | °C
As of 4:15 PM on Monday 22 Dec 2014 (Local Time) from KIND Reporting Station
Light Rain Light Rain  
Wind Chill: 39°   Ceiling: 2800
Heat Index: 44°   Visibility: 9mi
Dew Point: 38°   Wind: 9mph
Humidity: 79%   Direction: 120°ESE
Pressure: 29.75"   Gusts: NA
Location:  39.77°N, 86.15°W
Report Text: KIND 222115Z 12008KT 9SM -RA OVC028 07/03 A2975 RMK AO2 P0000 T00670033
Loading
Personal Weather Stations






























Interactive Weather Map New forecast layout! Learn more

10-Day Weather Forecast

Advertisements
Track Severe Weather on mobile